createdAt,value
2023-04-02T00:02:22.582Z,5.82
2023-04-02T00:05:20.007Z,5.81
2023-04-02T00:07:52.080Z,5.82
2023-04-02T00:10:29.619Z,5.82
2023-04-02T00:13:09.981Z,5.79
2023-04-02T00:15:41.788Z,5.81
2023-04-02T00:18:21.468Z,5.76
2023-04-02T00:20:58.660Z,5.73
2023-04-02T00:23:25.750Z,5.76
2023-04-02T00:25:53.151Z,5.76
2023-04-02T00:28:23.439Z,5.75
2023-04-02T00:30:59.042Z,5.74
2023-04-02T00:33:28.365Z,5.75
2023-04-02T00:35:56.019Z,5.74
2023-04-02T00:38:33.837Z,5.76
2023-04-02T00:41:03.476Z,5.72
2023-04-02T00:43:36.842Z,5.70
2023-04-02T00:46:19.261Z,5.71
2023-04-02T00:49:05.090Z,5.71
2023-04-02T00:51:39.630Z,5.70
2023-04-02T00:54:10.752Z,5.72
2023-04-02T00:56:43.341Z,5.72
2023-04-02T00:59:31.155Z,5.71
2023-04-02T01:02:04.745Z,5.68
2023-04-02T01:04:35.104Z,5.67
2023-04-02T01:07:09.011Z,5.63
2023-04-02T01:10:10.942Z,5.59
2023-04-02T01:12:47.568Z,5.61
2023-04-02T01:15:30.435Z,5.61
2023-04-02T01:18:19.970Z,5.58
2023-04-02T01:21:18.439Z,5.54
2023-04-02T01:24:02.860Z,5.53
2023-04-02T01:26:47.392Z,5.48
2023-04-02T01:29:38.987Z,5.46
2023-04-02T01:32:09.678Z,5.50
2023-04-02T01:34:38.052Z,5.50
2023-04-02T01:37:22.606Z,5.52
2023-04-02T01:40:23.705Z,5.52
2023-04-02T01:43:00.267Z,5.48
2023-04-02T01:45:29.143Z,5.42
2023-04-02T01:47:57.392Z,5.38
2023-04-02T01:50:24.345Z,5.36
2023-04-02T01:52:54.817Z,5.33
2023-04-02T01:55:50.016Z,5.33
2023-04-02T01:58:20.495Z,5.30
2023-04-02T02:01:13.941Z,5.24
2023-04-02T02:03:43.652Z,5.22
2023-04-02T02:06:17.114Z,5.18
2023-04-02T02:08:47.938Z,5.17
2023-04-02T02:11:17.983Z,5.17
2023-04-02T02:13:55.417Z,5.12
2023-04-02T02:16:23.491Z,5.12
2023-04-02T02:18:58.787Z,5.05
2023-04-02T02:21:45.481Z,4.98
2023-04-02T02:24:24.958Z,4.91
2023-04-02T02:27:04.265Z,4.91
2023-04-02T02:29:33.079Z,4.94
2023-04-02T02:32:01.708Z,4.89
2023-04-02T02:34:52.959Z,4.91
2023-04-02T02:37:25.552Z,4.88
2023-04-02T02:39:55.858Z,4.85
2023-04-02T02:42:31.671Z,4.82
2023-04-02T02:45:01.688Z,4.85
2023-04-02T02:47:30.382Z,4.87
2023-04-02T02:50:03.925Z,4.80
2023-04-02T02:52:33.326Z,4.79
2023-04-02T02:55:11.188Z,4.74
2023-04-02T02:58:04.839Z,4.73
2023-04-02T03:00:38.653Z,4.66
2023-04-02T03:03:09.074Z,4.66
2023-04-02T03:05:37.772Z,4.69
2023-04-02T03:08:15.723Z,4.59
2023-04-02T03:10:53.424Z,4.59
2023-04-02T03:13:33.085Z,4.57
2023-04-02T03:16:03.157Z,4.59
2023-04-02T03:18:33.792Z,4.65
2023-04-02T03:21:39.683Z,4.61
2023-04-02T03:24:09.666Z,4.55
2023-04-02T03:26:48.786Z,4.49
2023-04-02T03:29:17.208Z,4.42
2023-04-02T03:31:55.198Z,4.35
2023-04-02T03:34:37.496Z,4.32
2023-04-02T03:37:11.526Z,4.32
2023-04-02T03:39:44.276Z,4.32
2023-04-02T03:42:18.563Z,4.31
2023-04-02T03:44:55.929Z,4.23
2023-04-02T03:47:47.740Z,4.22
2023-04-02T03:50:17.979Z,4.21
2023-04-02T03:52:45.598Z,4.22
2023-04-02T03:55:24.626Z,4.18
2023-04-02T03:57:59.954Z,4.20
2023-04-02T04:00:41.455Z,4.20
2023-04-02T04:03:15.454Z,4.22
2023-04-02T04:05:51.904Z,4.19
2023-04-02T04:08:25.228Z,4.05
2023-04-02T04:10:54.368Z,4.02
2023-04-02T04:13:28.167Z,4.04
2023-04-02T04:16:09.664Z,3.99
2023-04-02T04:18:57.339Z,4.00
2023-04-02T04:21:38.670Z,4.03
2023-04-02T04:24:20.384Z,4.03
2023-04-02T04:26:56.400Z,4.03
2023-04-02T04:29:47.107Z,3.97
2023-04-02T04:32:32.371Z,3.88
2023-04-02T04:35:15.778Z,3.78
2023-04-02T04:37:43.870Z,3.81
2023-04-02T04:40:20.552Z,3.84
2023-04-02T04:42:50.883Z,3.71
2023-04-02T04:45:27.120Z,3.65
2023-04-02T04:47:59.269Z,3.69
2023-04-02T04:51:01.177Z,3.64
2023-04-02T04:53:30.479Z,3.62
2023-04-02T04:56:18.001Z,3.55
2023-04-02T04:59:12.898Z,3.59
2023-04-02T05:02:01.488Z,3.54
2023-04-02T05:04:40.681Z,3.42
2023-04-02T05:07:16.664Z,3.40
2023-04-02T05:09:56.917Z,3.39
2023-04-02T05:12:38.254Z,3.27
2023-04-02T05:15:25.885Z,3.19
2023-04-02T05:18:10.921Z,3.16
2023-04-02T05:20:57.912Z,3.13
2023-04-02T05:23:35.178Z,3.13
2023-04-02T05:26:14.078Z,3.11
2023-04-02T05:28:54.928Z,3.04
2023-04-02T05:31:26.250Z,3.03
2023-04-02T05:33:55.068Z,3.05
2023-04-02T05:36:25.917Z,3.02
2023-04-02T05:38:57.687Z,2.98
2023-04-02T05:41:38.443Z,2.96
2023-04-02T05:44:20.737Z,2.82
2023-04-02T05:46:51.846Z,2.80
2023-04-02T05:50:05.838Z,2.79
2023-04-02T05:52:48.023Z,2.77
2023-04-02T05:55:14.697Z,2.80
2023-04-02T05:58:13.600Z,2.88
2023-04-02T06:00:42.748Z,2.77
2023-04-02T06:03:41.905Z,2.75
2023-04-02T06:06:19.094Z,2.68
2023-04-02T06:08:52.319Z,2.66
2023-04-02T06:11:24.227Z,2.72
2023-04-02T06:13:52.266Z,2.59
2023-04-02T06:16:25.837Z,2.63
2023-04-02T06:18:52.868Z,2.59
2023-04-02T06:21:21.111Z,2.48
2023-04-02T06:23:59.609Z,2.46
2023-04-02T06:26:41.756Z,2.55
2023-04-02T06:29:18.820Z,2.55
2023-04-02T06:31:51.412Z,2.47
2023-04-02T06:34:21.958Z,2.57
2023-04-02T06:37:03.386Z,2.45
2023-04-02T06:39:32.194Z,2.55
2023-04-02T06:42:12.290Z,2.51
2023-04-02T06:44:59.180Z,2.49
2023-04-02T06:47:44.901Z,2.31
2023-04-02T06:50:23.528Z,2.35
2023-04-02T06:52:54.440Z,2.31
2023-04-02T06:55:21.297Z,2.39
2023-04-02T06:57:48.765Z,2.41
2023-04-02T07:00:35.879Z,2.37
2023-04-02T07:03:08.198Z,2.32
2023-04-02T07:05:35.545Z,2.33
2023-04-02T07:08:02.677Z,2.27
2023-04-02T07:10:29.799Z,2.34
2023-04-02T07:12:56.693Z,2.46
2023-04-02T07:15:25.535Z,2.43
2023-04-02T07:17:54.848Z,2.29
2023-04-02T07:20:33.067Z,2.67
2023-04-02T07:23:04.511Z,3.05
2023-04-02T07:25:31.468Z,2.74
2023-04-02T07:27:58.229Z,2.76
2023-04-02T07:30:25.027Z,2.83
2023-04-02T07:32:52.434Z,3.03
2023-04-02T07:35:19.256Z,2.83
2023-04-02T07:37:46.662Z,2.48
2023-04-02T07:40:19.202Z,2.27
2023-04-02T07:42:46.176Z,2.33
2023-04-02T07:45:13.355Z,2.33
2023-04-02T07:47:40.252Z,2.35
2023-04-02T07:50:08.354Z,2.53
2023-04-02T07:52:40.564Z,2.61
2023-04-02T07:55:10.007Z,2.56
2023-04-02T07:57:43.666Z,2.75
2023-04-02T08:00:12.313Z,2.66
2023-04-02T08:02:39.277Z,2.58
2023-04-02T08:05:09.301Z,2.89
2023-04-02T08:07:36.490Z,3.04
2023-04-02T08:10:05.518Z,3.13
2023-04-02T08:12:32.358Z,2.99
2023-04-02T08:15:01.474Z,2.86
2023-04-02T08:17:31.488Z,2.45
2023-04-02T08:20:01.202Z,2.50
2023-04-02T08:22:31.657Z,2.59
2023-04-02T08:24:58.390Z,2.46
2023-04-02T08:27:25.545Z,2.47
2023-04-02T08:29:52.326Z,2.71
2023-04-02T08:32:19.211Z,2.61
2023-04-02T08:34:46.567Z,2.96
2023-04-02T08:37:13.864Z,3.60
2023-04-02T08:39:41.274Z,4.38
2023-04-02T08:42:43.530Z,4.01
2023-04-02T08:45:32.414Z,4.65
2023-04-02T08:48:03.420Z,4.47
2023-04-02T08:50:39.393Z,4.66
2023-04-02T08:53:22.453Z,4.69
2023-04-02T08:55:59.853Z,5.24
2023-04-02T08:58:27.463Z,5.04
2023-04-02T09:00:55.668Z,4.53
2023-04-02T09:03:31.658Z,4.29
2023-04-02T09:05:59.573Z,4.28
2023-04-02T09:08:27.713Z,4.13
2023-04-02T09:11:08.633Z,4.81
2023-04-02T09:13:38.959Z,4.72
2023-04-02T09:16:11.592Z,5.08
2023-04-02T09:18:39.446Z,5.10
2023-04-02T09:21:21.923Z,6.45
2023-04-02T09:23:49.444Z,6.26
2023-04-02T09:26:30.615Z,6.00
2023-04-02T09:29:13.669Z,5.50
2023-04-02T09:31:45.558Z,5.35
2023-04-02T09:34:33.329Z,5.59
2023-04-02T09:37:18.636Z,5.83
2023-04-02T09:39:46.347Z,5.54
2023-04-02T09:42:34.383Z,5.95
2023-04-02T09:45:21.283Z,5.91
2023-04-02T09:47:50.086Z,6.11
2023-04-02T09:50:27.165Z,5.85
2023-04-02T09:52:54.515Z,6.46
2023-04-02T09:55:28.915Z,5.89
2023-04-02T09:58:11.644Z,5.84
2023-04-02T10:00:42.087Z,6.47
2023-04-02T10:03:18.950Z,6.49
2023-04-02T10:05:47.364Z,6.94
2023-04-02T10:08:28.576Z,7.89
2023-04-02T10:10:58.545Z,7.54
2023-04-02T10:13:29.712Z,7.61
2023-04-02T10:16:11.647Z,8.03
2023-04-02T10:18:54.541Z,8.48
2023-04-02T10:21:49.293Z,7.52
2023-04-02T10:24:17.768Z,7.49
2023-04-02T10:27:10.025Z,8.38
2023-04-02T10:29:40.294Z,8.71
2023-04-02T10:32:14.918Z,8.75
2023-04-02T10:35:05.664Z,8.43
2023-04-02T10:37:36.148Z,8.06
2023-04-02T10:40:18.484Z,8.37
2023-04-02T10:43:14.997Z,8.33
2023-04-02T10:45:49.682Z,8.49
2023-04-02T10:48:55.653Z,8.60
2023-04-02T10:51:30.425Z,8.31
2023-04-02T10:54:11.265Z,8.42
2023-04-02T10:56:49.846Z,8.29
2023-04-02T10:59:24.165Z,8.15
2023-04-02T11:01:52.413Z,8.73
2023-04-02T11:04:24.440Z,8.00
2023-04-02T11:07:11.565Z,7.62
2023-04-02T11:09:44.780Z,9.04
2023-04-02T11:12:21.273Z,7.86
2023-04-02T11:14:50.407Z,8.25
2023-04-02T11:17:20.183Z,9.54
2023-04-02T11:19:47.647Z,8.01
2023-04-02T11:22:18.463Z,8.25
2023-04-02T11:24:47.176Z,8.58
2023-04-02T11:27:26.283Z,8.99
2023-04-02T11:30:07.081Z,8.21
2023-04-02T11:32:39.960Z,8.50
2023-04-02T11:35:26.244Z,9.24
2023-04-02T11:37:56.067Z,9.88
2023-04-02T11:40:44.980Z,9.75
2023-04-02T11:43:34.654Z,9.46
2023-04-02T11:46:06.883Z,9.33
2023-04-02T11:48:37.638Z,8.97
2023-04-02T11:51:23.363Z,9.18
2023-04-02T11:53:54.483Z,9.98
2023-04-02T11:59:28.936Z,8.91
2023-04-02T12:02:19.193Z,8.44
2023-04-02T12:05:28.226Z,8.06
2023-04-02T12:08:05.725Z,9.36
2023-04-02T12:11:03.472Z,8.82
2023-04-02T12:13:46.822Z,8.86
2023-04-02T12:16:18.632Z,8.61
2023-04-02T12:18:52.152Z,9.23
2023-04-02T12:21:22.732Z,9.20
2023-04-02T12:23:53.162Z,9.78
2023-04-02T12:26:32.293Z,9.65
2023-04-02T12:29:26.460Z,9.68
2023-04-02T12:31:55.318Z,10.34
2023-04-02T12:34:24.002Z,9.25
2023-04-02T12:37:04.741Z,8.83
2023-04-02T12:39:33.121Z,9.43
2023-04-02T12:42:00.008Z,9.09
2023-04-02T12:44:28.859Z,9.28
2023-04-02T12:46:56.292Z,9.41
2023-04-02T12:49:35.327Z,9.07
2023-04-02T12:52:07.231Z,9.21
2023-04-02T12:54:53.629Z,9.03
2023-04-02T12:57:26.461Z,9.03
2023-04-02T12:59:58.010Z,9.42
2023-04-02T13:02:27.461Z,9.88
2023-04-02T13:04:56.521Z,8.94
2023-04-02T13:07:25.950Z,10.13
2023-04-02T13:09:59.208Z,10.68
2023-04-02T13:12:34.558Z,10.31
2023-04-02T13:15:03.518Z,10.18
2023-04-02T13:17:42.444Z,9.55
2023-04-02T13:20:27.928Z,9.27
2023-04-02T13:22:54.819Z,9.47
2023-04-02T13:25:28.525Z,10.06
2023-04-02T13:27:56.089Z,9.24
2023-04-02T13:30:25.424Z,9.76
2023-04-02T13:32:52.203Z,9.40
2023-04-02T13:35:19.586Z,9.75
2023-04-02T13:37:47.057Z,8.95
2023-04-02T13:40:15.595Z,9.49
2023-04-02T13:42:43.661Z,9.03
2023-04-02T13:45:24.638Z,9.75
2023-04-02T13:47:51.791Z,9.86
2023-04-02T13:50:21.496Z,9.46
2023-04-02T13:52:51.882Z,9.26
2023-04-02T13:55:23.500Z,9.39
2023-04-02T13:57:50.674Z,9.10
2023-04-02T14:00:18.408Z,8.72
2023-04-02T14:02:51.183Z,9.23
2023-04-02T14:05:47.238Z,9.04
2023-04-02T14:08:14.040Z,9.73
2023-04-02T14:10:55.733Z,9.53
2023-04-02T14:13:31.326Z,9.88
2023-04-02T14:16:21.554Z,9.25
2023-04-02T14:18:51.497Z,8.77
2023-04-02T14:21:33.715Z,9.02
2023-04-02T14:24:17.690Z,9.14
2023-04-02T14:27:04.157Z,8.65
2023-04-02T14:29:58.613Z,8.69
2023-04-02T14:32:54.897Z,8.56
2023-04-02T14:35:27.595Z,8.77
2023-04-02T14:38:07.059Z,8.74
2023-04-02T14:40:40.635Z,8.52
2023-04-02T14:43:25.377Z,8.51
2023-04-02T14:46:04.165Z,8.81
2023-04-02T14:48:43.137Z,8.87
2023-04-02T14:51:34.908Z,8.59
2023-04-02T14:54:23.655Z,8.54
2023-04-02T14:57:10.132Z,8.48
2023-04-02T14:59:46.418Z,8.59
2023-04-02T15:02:19.424Z,8.60
2023-04-02T15:04:59.594Z,8.56
2023-04-02T15:07:33.857Z,8.60
2023-04-02T15:10:50.586Z,8.48
2023-04-02T15:13:21.728Z,8.59
2023-04-02T15:16:13.651Z,8.47
2023-04-02T15:18:40.774Z,8.65
2023-04-02T15:21:19.419Z,8.58
2023-04-02T15:23:51.152Z,8.47
2023-04-02T15:26:54.972Z,8.45
2023-04-02T15:29:47.799Z,8.54
2023-04-02T15:32:37.138Z,8.73
2023-04-02T15:35:32.476Z,8.61
2023-04-02T15:38:29.739Z,8.68
2023-04-02T15:41:23.815Z,8.58
2023-04-02T15:44:04.092Z,8.74
2023-04-02T15:46:56.250Z,8.63
2023-04-02T15:49:37.469Z,8.44
2023-04-02T15:52:09.636Z,8.51
2023-04-02T15:55:04.499Z,8.53
2023-04-02T15:57:51.170Z,8.49
2023-04-02T16:00:23.884Z,8.46
2023-04-02T16:02:58.481Z,8.43
2023-04-02T16:05:34.929Z,8.46
2023-04-02T16:08:33.488Z,8.42
2023-04-02T16:11:00.717Z,8.44
2023-04-02T16:13:39.270Z,8.45
2023-04-02T16:16:15.710Z,8.50
2023-04-02T16:19:04.171Z,8.54
2023-04-02T16:21:51.833Z,8.47
2023-04-02T16:24:19.152Z,8.53
2023-04-02T16:27:02.560Z,8.41
2023-04-02T16:29:47.102Z,8.33
2023-04-02T16:32:39.800Z,8.32
2023-04-02T16:38:20.984Z,8.38
2023-04-02T16:41:20.602Z,8.38
2023-04-02T16:44:13.894Z,8.33
2023-04-02T16:47:09.257Z,8.33
2023-04-02T16:49:47.154Z,8.26
2023-04-02T16:52:36.579Z,8.30
2023-04-02T16:55:13.272Z,8.18
2023-04-02T16:58:25.498Z,8.14
2023-04-02T17:01:08.919Z,8.17
2023-04-02T17:03:36.384Z,8.16
2023-04-02T17:06:29.770Z,8.27
2023-04-02T17:09:07.049Z,8.14
2023-04-02T17:11:54.709Z,7.99
2023-04-02T17:14:30.996Z,7.93
2023-04-02T17:17:02.068Z,7.89
2023-04-02T17:19:31.045Z,7.88
2023-04-02T17:22:04.087Z,7.84
2023-04-02T17:24:42.665Z,7.84
2023-04-02T17:27:21.466Z,7.87
2023-04-02T17:29:53.148Z,7.93
2023-04-02T17:32:30.470Z,7.90
2023-04-02T17:34:58.693Z,7.96
2023-04-02T17:37:30.853Z,7.84
2023-04-02T17:40:27.203Z,7.79
2023-04-02T17:43:14.269Z,7.79
2023-04-02T17:45:46.626Z,7.70
2023-04-02T17:48:41.511Z,7.62
2023-04-02T17:52:10.399Z,7.59
2023-04-02T17:54:52.553Z,7.71
2023-04-02T17:57:33.476Z,7.50
2023-04-02T18:00:19.454Z,7.43
2023-04-02T18:03:27.958Z,7.67
2023-04-02T18:06:09.440Z,7.64
2023-04-02T18:08:56.169Z,7.51
2023-04-02T18:11:44.738Z,7.49
2023-04-02T18:14:41.058Z,7.39
2023-04-02T18:17:14.305Z,7.36
2023-04-02T18:19:44.630Z,7.31
2023-04-02T18:22:28.138Z,7.32
2023-04-02T18:25:28.044Z,7.24
2023-04-02T18:28:04.891Z,7.20
2023-04-02T18:31:02.095Z,7.21
2023-04-02T18:33:56.527Z,7.09
2023-04-02T18:36:42.083Z,7.08
2023-04-02T18:39:21.745Z,6.97
2023-04-02T18:42:15.199Z,6.99
2023-04-02T18:45:04.484Z,6.92
2023-04-02T18:47:47.170Z,6.92
2023-04-02T18:50:32.826Z,6.83
2023-04-02T18:53:09.964Z,6.71
2023-04-02T18:55:37.817Z,6.60
2023-04-02T18:58:11.881Z,6.67
2023-04-02T19:00:44.647Z,6.78
2023-04-02T19:03:31.109Z,6.79
2023-04-02T19:06:10.420Z,6.74
2023-04-02T19:08:48.553Z,6.71
2023-04-02T19:11:29.085Z,6.65
2023-04-02T19:14:01.190Z,6.48
2023-04-02T19:17:02.084Z,6.48
2023-04-02T19:19:50.936Z,6.35
2023-04-02T19:22:35.597Z,6.40
2023-04-02T19:25:26.559Z,6.31
2023-04-02T19:28:14.007Z,6.28
2023-04-02T19:30:57.606Z,6.19
2023-04-02T19:33:42.778Z,6.17
2023-04-02T19:36:29.995Z,6.17
2023-04-02T19:39:31.926Z,6.14
2023-04-02T19:42:05.670Z,6.11
2023-04-02T19:44:33.021Z,6.06
2023-04-02T19:47:00.378Z,5.95
2023-04-02T19:49:30.647Z,5.89
2023-04-02T19:51:58.485Z,5.86
2023-04-02T19:54:25.980Z,5.91
2023-04-02T19:56:54.137Z,5.92
2023-04-02T19:59:21.610Z,5.88
2023-04-02T20:01:49.309Z,5.84
2023-04-02T20:04:16.947Z,5.96
2023-04-02T20:06:44.309Z,5.96
2023-04-02T20:09:11.516Z,5.92
2023-04-02T20:11:39.447Z,5.82
2023-04-02T20:14:07.022Z,5.83
2023-04-02T20:16:37.001Z,5.82
2023-04-02T20:19:04.422Z,5.83
2023-04-02T20:21:38.600Z,5.79
2023-04-02T20:24:07.607Z,5.71
2023-04-02T20:26:35.541Z,5.61
2023-04-02T20:29:03.167Z,5.70
2023-04-02T20:31:30.920Z,5.75
2023-04-02T20:33:59.676Z,5.79
2023-04-02T20:36:28.264Z,5.72
2023-04-02T20:38:55.923Z,5.77
2023-04-02T20:41:24.369Z,5.74
2023-04-02T20:43:51.651Z,5.74
2023-04-02T20:46:19.204Z,5.65
2023-04-02T20:48:47.222Z,5.65
2023-04-02T20:51:15.792Z,5.65
2023-04-02T20:53:43.698Z,5.59
2023-04-02T20:56:16.290Z,5.58
2023-04-02T20:58:44.488Z,5.50
2023-04-02T21:01:13.317Z,5.66
2023-04-02T21:03:40.858Z,5.57
2023-04-02T21:06:13.972Z,5.57
2023-04-02T21:08:41.372Z,5.47
2023-04-02T21:11:09.455Z,5.41
2023-04-02T21:13:37.454Z,5.39
2023-04-02T21:16:06.163Z,5.37
2023-04-02T21:18:33.799Z,5.27
2023-04-02T21:21:04.194Z,5.32
2023-04-02T21:23:32.933Z,5.29
2023-04-02T21:26:04.365Z,5.16
2023-04-02T21:28:32.704Z,5.28
2023-04-02T21:31:18.269Z,5.56
2023-04-02T21:33:56.879Z,5.34
2023-04-02T21:36:26.686Z,5.17
2023-04-02T21:38:56.928Z,5.27
2023-04-02T21:41:27.123Z,5.40
2023-04-02T21:43:55.027Z,5.49
2023-04-02T21:46:26.082Z,5.38
2023-04-02T21:48:55.644Z,5.51
2023-04-02T21:51:25.774Z,5.49
2023-04-02T21:53:54.498Z,5.39
2023-04-02T21:56:26.848Z,5.38
2023-04-02T21:58:54.920Z,5.58
2023-04-02T22:01:27.172Z,5.42
2023-04-02T22:03:59.907Z,5.41
2023-04-02T22:06:29.633Z,5.31
2023-04-02T22:09:01.693Z,5.38
2023-04-02T22:11:31.673Z,5.34
2023-04-02T22:13:59.709Z,5.35
2023-04-02T22:16:29.122Z,5.27
2023-04-02T22:18:58.594Z,5.29
2023-04-02T22:21:26.588Z,5.14
2023-04-02T22:23:53.920Z,5.30
2023-04-02T22:26:23.447Z,5.19
2023-04-02T22:28:52.837Z,5.03
2023-04-02T22:31:23.234Z,5.09
2023-04-02T22:33:51.068Z,5.11
2023-04-02T22:36:19.285Z,5.13
2023-04-02T22:38:46.610Z,5.07
2023-04-02T22:41:16.538Z,5.06
2023-04-02T22:43:45.252Z,5.04
2023-04-02T22:46:14.521Z,5.19
2023-04-02T22:48:42.533Z,5.08
2023-04-02T22:51:11.638Z,4.93
2023-04-02T22:53:39.287Z,4.96
2023-04-02T22:56:07.706Z,4.85
2023-04-02T22:58:35.983Z,4.80
2023-04-02T23:01:08.738Z,4.93
2023-04-02T23:03:35.905Z,4.82
2023-04-02T23:06:06.365Z,4.89
2023-04-02T23:08:34.657Z,4.85
2023-04-02T23:11:04.131Z,4.63
2023-04-02T23:13:31.883Z,4.58
2023-04-02T23:16:02.253Z,4.43
2023-04-02T23:18:33.777Z,4.41
2023-04-02T23:21:01.347Z,4.51
2023-04-02T23:23:28.807Z,4.49
2023-04-02T23:26:03.516Z,4.58
2023-04-02T23:28:31.028Z,4.65
2023-04-02T23:30:58.726Z,4.49
2023-04-02T23:33:26.031Z,4.35
2023-04-02T23:35:53.638Z,4.12
2023-04-02T23:38:21.248Z,4.13
2023-04-02T23:40:48.836Z,3.90
2023-04-02T23:43:16.426Z,3.92
2023-04-02T23:45:50.268Z,3.88
2023-04-02T23:48:17.874Z,4.21
2023-04-02T23:50:46.246Z,4.14
2023-04-02T23:53:14.293Z,3.98
2023-04-02T23:55:41.668Z,4.22
2023-04-02T23:58:09.050Z,4.17
